Scenic, SD (57780)

2:40 AM MST on February 07, 2016 (GMT -0700)
NonFedAWOS | | Change Station
CLOSE
Current Station
Personal Weather Station
Location: Wall, SD
Elevation: 2812 ft
Nearby Weather Stations
Active Advisory: High Wind Warning

Elev 2812 ft 44.00 °N, 102.25 °W | Updated 45 minutes ago

Mostly Cloudy
Mostly Cloudy
36 °F
Feels Like 25 °F
N
20
Wind Variable Wind from West
Gusts 30.0 mph

Today
High -- | Low -- °F
--% Chance of Precip.
Yesterday
High -- | Low -- °F
Precip. -- in
Pressure 30.07 in
Visibility 10.0 miles
Clouds Overcast 11000 ft
Windchill 25 °F
Dew Point 21 °F
Humidity 55%
Rainfall in
Snow Depth Not available.
7:00 AM 5:08 PM
Waning Crescent, 2% visible
METAR KRAP 070852Z AUTO 32023KT 10SM OVC110 03/M09 A3004 RMK AO2 PK WND 32047/0837 SLP183 T00281089 51005
Pressure 30.07 in
Visibility 10.0 miles
Clouds Overcast 11000 ft
Windchill 25 °F
Dew Point 21 °F
Humidity 55%
Rainfall in
Snow Depth Not available.
7:00 AM 5:08 PM
Waning Crescent, 2% visible
METAR KRAP 070852Z AUTO 32023KT 10SM OVC110 03/M09 A3004 RMK AO2 PK WND 32047/0837 SLP183 T00281089 51005

10-Day Weather Forecast

Almanac

Astronomy

Feb. 07, 2016 Rise Set
Actual Time
Civil Twilight
Nautical Twilight
Astronomical Twilight
Moon
Length of Visible Light
Length of Day
Tomorrow will be .
, % of the Moon is Illuminated

Today's Extremes

State Highs State Lows

Community

WunderPhotos

Upload Photos

1,891,171 photos uploaded!

WunderBlog® & News

Nearby

Air Quality

  Air Quality AQ Index Pollutant
Not available.

Snow Depth

Station Depth Elevation

Earthquake Activity

City Distance Mag. Time & Date
Minimum magnitude displayed is 2.5.

Coastal Water Temperatures

Place Temperature

Stations

Nearby Weather Stations

Station Location Temp. Windchill Dew Point Humidity Wind Precip. Elev Updated Type
                   

Watches & Warnings

High Wind Warning
Issued: 2:04 AM MST Feb. 7, 2016 – National Weather Service

... High Wind Warning remains in effect until 8 PM MST this
evening...

* timing... very strong winds today... gradually decreasing this
evening.

* Winds... northwest winds increasing to 35 to 45 mph with gusts
up to 75 mph.

* Impacts... the high winds can blow down large trees... and
damage roofs... small outbuildings... and signs. Sudden wind
gusts can cause drivers to lose control... especially in
lightweight or high profile vehicles. Strong winds can cause
blowing dust... reduced visibility... and flying debris.